Time;durP1;ratioP1;P1;durP2;ratioP2;P2;SDS_P1;SDS_P2;PMS_P1;PMS_P2;Temp;Humidity;BMP_temperature;BMP_pressure;BME280_temperature;BME280_humidity;BME280_pressure;Samples;Min_cycle;Max_cycle;Signal;HPM_P1;HPM_P2
2021/04/20 00:03:51;;;;;;;16.45;12.78;;;;;;;9.19;88.80;100203.48;2653059;89;21208;-66
2021/04/20 00:07:55;;;;;;;18.80;12.18;;;;;;;9.09;88.01;100200.19;2656112;89;21183;-66
2021/04/20 00:12:00;;;;;;;16.77;12.73;;;;;;;9.05;88.52;100210.68;2656834;89;21172;-66
2021/04/20 00:16:04;;;;;;;16.50;12.35;;;;;;;9.03;88.44;100198.02;2656733;89;21198;-66
2021/04/20 00:20:13;;;;;;;17.87;13.53;;;;;;;8.97;88.35;100199.33;2656701;89;21602;-66
2021/04/20 00:24:16;;;;;;;16.75;12.88;;;;;;;8.92;88.59;100205.48;2656778;89;21211;-65
2021/04/20 00:28:26;;;;;;;18.20;13.60;;;;;;;8.90;90.16;100200.77;2656688;89;21673;-66
2021/04/20 00:32:28;;;;;;;18.92;13.58;;;;;;;8.98;90.25;100198.86;2656754;89;21192;-67
2021/04/20 00:36:31;;;;;;;16.32;11.20;;;;;;;9.02;90.57;100196.80;2656634;89;21198;-65
2021/04/20 00:40:35;;;;;;;16.80;11.63;;;;;;;9.10;89.83;100207.19;2656685;89;21501;-66
2021/04/20 00:44:38;;;;;;;17.00;13.88;;;;;;;9.14;88.59;100206.48;2656493;88;21214;-66
2021/04/20 00:48:42;;;;;;;20.62;14.50;;;;;;;9.11;88.68;100201.41;2656785;89;21159;-66
2021/04/20 00:52:46;;;;;;;13.00;11.60;;;;;;;9.10;89.25;100201.05;2656711;89;21605;-65
2021/04/20 00:56:49;;;;;;;20.45;12.65;;;;;;;9.13;89.27;100195.50;2656429;89;21192;-65
2021/04/20 01:00:53;;;;;;;18.00;12.47;;;;;;;9.08;88.49;100199.00;2656574;88;21215;-66
2021/04/20 01:04:56;;;;;;;16.17;13.65;;;;;;;8.95;88.86;100194.62;2656511;89;21647;-67
2021/04/20 01:09:00;;;;;;;18.45;12.60;;;;;;;8.88;89.62;100193.88;2655995;88;21240;-66
2021/04/20 01:13:05;;;;;;;14.63;11.73;;;;;;;8.86;89.03;100190.04;2655985;89;21186;-66
2021/04/20 01:17:08;;;;;;;16.75;12.88;;;;;;;8.80;89.03;100193.13;2654967;89;21195;-66
2021/04/20 01:21:13;;;;;;;12.30;11.10;;;;;;;8.68;89.54;100190.94;2654333;89;21164;-66
2021/04/20 01:25:17;;;;;;;19.30;13.93;;;;;;;8.57;89.08;100192.61;2656532;89;21206;-67
2021/04/20 01:29:22;;;;;;;14.87;12.23;;;;;;;8.61;89.10;100189.22;2656550;89;21202;-67
2021/04/20 01:33:25;;;;;;;14.33;12.20;;;;;;;8.60;87.76;100192.84;2656593;89;21171;-66
2021/04/20 01:37:28;;;;;;;15.08;12.13;;;;;;;8.44;87.50;100192.62;2656438;89;21653;-66
2021/04/20 01:41:33;;;;;;;17.98;11.57;;;;;;;8.31;88.21;100197.16;2656783;89;21167;-66
2021/04/20 01:45:36;;;;;;;14.30;11.10;;;;;;;8.22;88.55;100195.17;2629752;88;21217;-65
2021/04/20 01:49:39;;;;;;;12.70;9.55;;;;;;;8.26;89.46;100196.17;2656686;89;21151;-65
2021/04/20 01:53:45;;;;;;;15.38;11.68;;;;;;;8.27;88.37;100198.35;2656710;89;21203;-66
2021/04/20 01:57:50;;;;;;;16.70;12.18;;;;;;;8.33;88.67;100199.22;2656747;89;21166;-66
2021/04/20 02:01:55;;;;;;;16.27;10.55;;;;;;;8.26;88.22;100195.34;2659212;89;21175;-67
2021/04/20 02:05:58;;;;;;;18.27;11.48;;;;;;;8.17;88.73;100182.75;2609509;90;21157;-68
2021/04/20 02:10:04;;;;;;;14.50;10.95;;;;;;;8.07;88.17;100186.09;2669107;89;21223;-67
2021/04/20 02:14:07;;;;;;;17.23;12.63;;;;;;;8.05;89.72;100190.63;2669223;89;21166;-67
2021/04/20 02:18:12;;;;;;;16.57;11.63;;;;;;;8.06;89.83;100191.02;2609771;91;21137;-67
2021/04/20 02:22:17;;;;;;;12.43;11.30;;;;;;;8.04;90.29;100186.78;2608940;91;21691;-67
2021/04/20 02:26:30;;;;;;;13.98;11.12;;;;;;;8.03;90.31;100187.25;2608849;91;21177;-67
2021/04/20 02:30:35;;;;;;;14.05;11.48;;;;;;;8.00;90.47;100195.42;2607334;91;21244;-66
2021/04/20 02:34:38;;;;;;;16.37;13.55;;;;;;;7.97;90.77;100199.16;2606253;91;21205;-67
2021/04/20 02:38:45;;;;;;;14.73;12.50;;;;;;;7.95;90.70;100193.59;2605421;91;21212;-67
2021/04/20 02:42:50;;;;;;;15.10;11.48;;;;;;;7.92;90.26;100192.49;2605334;91;21209;-66
2021/04/20 02:46:54;;;;;;;13.30;11.90;;;;;;;7.85;90.33;100193.41;2605230;91;22309;-67
2021/04/20 02:50:58;;;;;;;15.03;12.98;;;;;;;7.82;89.99;100186.52;2605181;91;21205;-66
2021/04/20 02:55:04;;;;;;;34.45;29.40;;;;;;;7.75;89.61;100187.93;2605134;91;21212;-67
2021/04/20 02:59:10;;;;;;;31.23;23.83;;;;;;;7.68;90.13;100186.19;2605184;91;21208;-66
2021/04/20 03:03:15;;;;;;;21.25;15.80;;;;;;;7.70;90.69;100183.45;2619990;90;21207;-65
2021/04/20 03:07:18;;;;;;;22.58;17.67;;;;;;;7.72;90.34;100177.56;2633132;90;21198;-66
2021/04/20 03:11:46;;;;;;;57.03;39.75;;;;;;;7.69;89.87;100183.91;2676888;89;21179;-67
2021/04/20 03:15:49;;;;;;;89.40;63.50;;;;;;;7.64;90.14;100186.52;2675009;88;21155;-67
2021/04/20 03:19:56;;;;;;;21.75;17.32;;;;;;;7.62;90.68;100189.75;2674469;89;21620;-70
2021/04/20 03:24:03;;;;;;;44.90;28.75;;;;;;;7.65;89.71;100191.71;2674437;89;21652;-65
2021/04/20 03:28:08;;;;;;;16.23;12.58;;;;;;;7.60;87.99;100186.37;2674336;89;21179;-64
2021/04/20 03:32:11;;;;;;;26.77;17.25;;;;;;;7.47;87.83;100189.91;2670526;89;21141;-64
2021/04/20 03:36:22;;;;;;;23.70;17.42;;;;;;;7.35;88.23;100190.75;2668188;88;21161;-63
2021/04/20 03:40:27;;;;;;;30.57;21.97;;;;;;;7.28;89.23;100189.01;2674482;87;21223;-64
2021/04/20 03:44:52;;;;;;;37.08;22.48;;;;;;;7.21;90.24;100189.91;2675745;87;21656;-64
2021/04/20 03:49:09;;;;;;;31.30;15.88;;;;;;;7.24;90.54;100191.02;2675080;87;21241;-64
2021/04/20 03:53:17;;;;;;;20.92;13.62;;;;;;;7.18;90.83;100196.73;2672748;88;21190;-64
2021/04/20 03:57:25;;;;;;;20.20;15.10;;;;;;;7.12;90.43;100193.20;2675224;89;21175;-64
2021/04/20 04:01:33;;;;;;;29.35;21.15;;;;;;;7.04;90.35;100187.58;2675947;87;21190;-63
2021/04/20 04:05:40;;;;;;;22.17;17.50;;;;;;;6.99;91.23;100190.56;2655504;89;21641;-63
2021/04/20 04:09:45;;;;;;;22.80;16.62;;;;;;;7.12;92.07;100182.63;2653841;88;21171;-63
2021/04/20 04:13:50;;;;;;;17.05;14.35;;;;;;;7.59;91.04;100186.86;2654824;88;21517;-62
2021/04/20 04:17:56;;;;;;;21.55;16.42;;;;;;;7.59;91.04;100186.86;2656300;89;21171;-61
2021/04/20 04:22:02;;;;;;;;;;;;;;;7.78;90.25;100193.00;2616773;91;21231;-64
2021/04/20 04:26:09;;;;;;;19.30;14.73;;;;;;;7.92;89.33;100189.84;2625641;89;20193;-64
2021/04/20 04:30:13;;;;;;;;;;;;;;;7.82;88.20;100187.84;2655885;89;21203;-63
2021/04/20 04:34:18;;;;;;;14.90;12.80;;;;;;;7.72;88.46;100188.16;2653826;89;20177;-65
2021/04/20 04:38:21;;;;;;;16.75;14.35;;;;;;;7.70;89.07;100186.92;2653913;89;21598;-64
2021/04/20 04:42:26;;;;;;;16.35;12.90;;;;;;;7.67;88.96;100192.94;2653984;88;21207;-64
2021/04/20 04:46:30;;;;;;;14.73;12.77;;;;;;;7.68;89.19;100191.48;2653667;89;21203;-64
2021/04/20 04:50:36;;;;;;;16.90;10.63;;;;;;;7.76;89.68;100194.05;2652574;89;21203;-64
2021/04/20 04:54:39;;;;;;;14.47;12.90;;;;;;;7.78;89.29;100196.97;2614338;91;21253;-64
2021/04/20 04:58:43;;;;;;;15.88;13.25;;;;;;;7.97;90.42;100198.30;2614295;90;21214;-65
2021/04/20 05:02:48;;;;;;;17.98;13.65;;;;;;;8.64;91.03;100199.59;2616556;90;21194;-66
2021/04/20 05:06:52;;;;;;;17.25;12.58;;;;;;;9.28;89.80;100196.97;2626375;90;21190;-66
2021/04/20 05:11:03;;;;;;;23.75;15.50;;;;;;;9.78;87.36;100189.09;2626644;90;21225;-66
2021/04/20 05:15:13;;;;;;;15.98;12.03;;;;;;;9.62;84.57;100186.82;2626517;90;21162;-67
2021/04/20 05:19:29;;;;;;;20.70;11.53;;;;;;;9.47;83.79;100192.87;2626401;90;21217;-67
2021/04/20 05:23:32;;;;;;;20.17;12.10;;;;;;;9.21;83.95;100191.75;2626478;90;21187;-67
2021/04/20 05:27:36;;;;;;;14.80;12.63;;;;;;;9.05;84.79;100197.91;2626597;90;21203;-67
2021/04/20 05:31:39;;;;;;;15.90;12.85;;;;;;;9.02;85.81;100196.80;2626581;90;21240;-67
2021/04/20 05:35:44;;;;;;;15.93;11.03;;;;;;;9.05;85.65;100198.74;2626521;90;21210;-67
2021/04/20 05:39:47;;;;;;;23.32;17.00;;;;;;;9.02;86.20;100202.10;2626267;90;21206;-68
2021/04/20 05:43:52;;;;;;;29.72;24.00;;;;;;;9.08;86.73;100205.63;2626281;89;21134;-67
2021/04/20 05:47:56;;;;;;;18.12;14.20;;;;;;;9.15;86.95;100209.49;2626327;90;21210;-67
2021/04/20 05:52:02;;;;;;;21.27;15.55;;;;;;;9.26;87.78;100212.17;2626364;90;21206;-69
2021/04/20 05:56:06;;;;;;;23.85;17.02;;;;;;;9.45;88.21;100200.59;2626236;90;21653;-68
2021/04/20 06:00:11;;;;;;;21.93;17.85;;;;;;;9.64;88.28;100196.84;2626225;90;21631;-68
2021/04/20 06:04:15;;;;;;;18.98;14.28;;;;;;;10.00;89.29;100203.30;2605546;90;21206;-68
2021/04/20 06:08:18;;;;;;;21.30;15.58;;;;;;;10.55;90.17;100206.42;2626407;90;21235;-69
2021/04/20 06:12:22;;;;;;;18.60;16.48;;;;;;;11.08;89.13;100208.69;2626574;90;21198;-69
2021/04/20 06:16:25;;;;;;;17.10;13.18;;;;;;;11.41;88.44;100200.11;2626621;90;21174;-70
2021/04/20 06:20:29;;;;;;;20.88;14.07;;;;;;;11.69;86.82;100203.00;2568884;92;21192;-69
2021/04/20 06:24:32;;;;;;;19.90;15.90;;;;;;;11.87;86.31;100200.52;2568763;92;21671;-69
2021/04/20 06:28:37;;;;;;;21.62;17.17;;;;;;;11.97;86.26;100200.07;2568799;92;21205;-70
2021/04/20 06:32:44;;;;;;;;;;;;;;;12.08;86.52;100197.80;2568902;92;21199;-70
2021/04/20 06:36:48;;;;;;;19.05;16.67;;;;;;;12.20;85.56;100201.70;2566789;92;20199;-70
2021/04/20 06:40:53;;;;;;;19.37;13.62;;;;;;;12.44;86.58;100197.27;2566753;92;21160;-70
2021/04/20 06:45:01;;;;;;;16.20;12.50;;;;;;;12.68;85.65;100208.03;2566917;91;21212;-70
2021/04/20 06:49:21;;;;;;;17.42;13.80;;;;;;;12.79;82.95;100204.36;3012017;78;22977;-69
2021/04/20 06:53:33;;;;;;;16.80;13.10;;;;;;;12.79;82.95;100204.36;2964971;80;21081;-71
2021/04/20 06:57:41;;;;;;;16.73;12.05;;;;;;;12.76;83.68;100207.29;2860373;83;21161;-70
2021/04/20 07:01:49;;;;;;;17.42;14.13;;;;;;;12.86;83.59;100203.63;2910485;81;21197;-70
2021/04/20 07:06:23;;;;;;;18.52;14.38;;;;;;;12.92;82.82;100204.88;2910414;81;21165;-70
2021/04/20 07:10:46;;;;;;;22.60;14.73;;;;;;;13.01;83.27;100208.52;2910675;81;21153;-69
2021/04/20 07:14:55;;;;;;;17.62;13.53;;;;;;;13.32;84.07;100210.13;2910719;81;21177;-71
2021/04/20 07:19:26;;;;;;;19.75;14.23;;;;;;;13.59;81.75;100208.02;2910859;81;21159;-70
2021/04/20 07:24:10;;;;;;;13.70;11.68;;;;;;;13.63;80.42;100207.24;2910692;81;21141;-71
2021/04/20 07:28:49;;;;;;;16.77;14.98;;;;;;;13.55;80.03;100211.98;2910505;81;21197;-71
2021/04/20 07:33:14;;;;;;;19.15;16.75;;;;;;;13.64;80.79;100212.94;2911027;81;21165;-71
2021/04/20 07:37:44;;;;;;;20.88;17.67;;;;;;;13.85;81.39;100206.84;2911049;81;21182;-69
2021/04/20 07:41:57;;;;;;;20.00;16.70;;;;;;;14.14;80.60;100201.80;2910789;81;21205;-71
2021/04/20 07:46:24;;;;;;;20.50;14.85;;;;;;;14.35;78.86;100204.70;2872475;81;21569;-70
2021/04/20 07:50:34;;;;;;;21.35;16.45;;;;;;;14.54;78.17;100203.69;2817255;84;21157;-70
2021/04/20 07:55:16;;;;;;;21.02;18.75;;;;;;;14.53;77.64;100199.82;2786882;84;21153;-70
2021/04/20 07:59:27;;;;;;;23.22;17.98;;;;;;;14.59;78.54;100196.55;2823334;83;21320;-70
2021/04/20 08:03:40;;;;;;;22.30;20.02;;;;;;;14.66;77.35;100204.80;2836347;83;21136;-71
2021/04/20 08:07:58;;;;;;;23.57;20.65;;;;;;;14.87;79.16;100193.77;2836353;82;21725;-70
2021/04/20 08:12:24;;;;;;;19.48;17.42;;;;;;;15.04;78.73;100200.10;2836439;83;21558;-69
2021/04/20 08:17:12;;;;;;;24.90;18.65;;;;;;;15.16;78.20;100192.64;2836467;82;21156;-70
2021/04/20 08:21:16;;;;;;;17.98;14.50;;;;;;;15.18;76.50;100205.38;2836337;83;21168;-70
2021/04/20 08:25:31;;;;;;;20.55;17.32;;;;;;;15.22;75.92;100189.31;2836938;84;21211;-70
2021/04/20 08:29:36;;;;;;;20.52;16.25;;;;;;;15.08;75.50;100193.91;2825403;84;21188;-71
2021/04/20 08:33:45;;;;;;;18.32;15.23;;;;;;;15.08;75.26;100199.27;2836710;84;22194;-70
2021/04/20 08:37:57;;;;;;;22.42;19.15;;;;;;;15.22;76.90;100197.36;2836742;84;21096;-71
2021/04/20 08:42:24;;;;;;;18.70;15.10;;;;;;;15.31;76.31;100193.37;2836429;84;21137;-69
2021/04/20 08:46:47;;;;;;;21.80;16.90;;;;;;;15.39;75.92;100192.91;2834553;83;21165;-70
2021/04/20 08:51:26;;;;;;;20.30;18.15;;;;;;;15.25;75.93;100191.67;2837013;84;21129;-69
2021/04/20 08:55:49;;;;;;;18.27;15.40;;;;;;;15.13;77.63;100185.75;2836520;84;21535;-69
2021/04/20 09:00:00;;;;;;;19.40;15.40;;;;;;;15.04;76.47;100189.87;2836440;84;21156;-70
2021/04/20 09:04:23;;;;;;;18.75;16.75;;;;;;;15.03;77.92;100186.85;2836399;83;21116;-70
2021/04/20 09:08:35;;;;;;;18.85;14.85;;;;;;;15.12;78.51;100187.23;2836223;84;22292;-70
2021/04/20 09:12:40;;;;;;;17.52;15.75;;;;;;;15.49;79.64;100180.73;2836596;82;21124;-69
2021/04/20 09:16:47;;;;;;;20.72;16.00;;;;;;;15.78;77.85;100169.28;2836559;84;21172;-70
2021/04/20 09:21:08;;;;;;;19.15;15.38;;;;;;;16.09;77.09;100164.70;2836822;84;21145;-69
2021/04/20 09:25:30;;;;;;;19.15;16.30;;;;;;;16.36;75.80;100167.59;2836751;84;21132;-70
2021/04/20 09:29:55;;;;;;;21.05;15.50;;;;;;;16.63;76.10;100167.44;2837128;84;21614;-69
2021/04/20 09:33:59;;;;;;;16.90;14.25;;;;;;;16.70;74.05;100167.94;2837401;84;21140;-71
2021/04/20 09:38:04;;;;;;;16.10;11.45;;;;;;;16.70;73.04;100170.62;2836477;84;21156;-70
2021/04/20 09:42:08;;;;;;;21.85;16.05;;;;;;;16.60;71.76;100171.28;2837251;82;21153;-70
2021/04/20 09:46:59;;;;;;;18.87;14.75;;;;;;;16.56;72.93;100163.23;2836687;83;21202;-70
2021/04/20 09:51:24;;;;;;;18.10;16.17;;;;;;;16.61;73.74;100154.16;2837003;84;21161;-71
2021/04/20 09:55:34;;;;;;;20.37;14.90;;;;;;;16.73;72.98;100164.58;2836930;84;21150;-70
2021/04/20 09:59:58;;;;;;;19.02;17.02;;;;;;;16.72;72.18;100165.59;2836975;82;21144;-71
2021/04/20 10:04:43;;;;;;;15.53;13.85;;;;;;;16.85;72.48;100164.55;2836800;83;21129;-71
2021/04/20 10:09:14;;;;;;;17.10;14.90;;;;;;;16.95;72.04;100155.81;2836477;83;21136;-71
2021/04/20 10:13:45;;;;;;;17.90;15.23;;;;;;;17.07;70.07;100154.97;2837175;83;21177;-71
2021/04/20 10:18:17;;;;;;;17.05;13.80;;;;;;;17.25;71.64;100152.05;2836982;82;21154;-71
2021/04/20 10:22:59;;;;;;;20.15;17.37;;;;;;;17.41;71.89;100155.21;2836980;84;21128;-71
2021/04/20 10:27:18;;;;;;;21.35;17.62;;;;;;;17.46;68.63;100149.81;2836959;84;21140;-71
2021/04/20 10:31:39;;;;;;;25.17;16.40;;;;;;;17.51;69.33;100133.98;2836915;84;21647;-71
2021/04/20 10:35:43;;;;;;;19.00;16.97;;;;;;;17.52;68.10;100139.20;2836826;83;21161;-72
2021/04/20 10:39:50;;;;;;;15.63;14.00;;;;;;;17.64;69.49;100134.75;2837269;84;21133;-70
2021/04/20 10:43:55;;;;;;;23.35;14.55;;;;;;;17.62;66.93;100125.53;2836950;83;21132;-70
2021/04/20 10:48:00;;;;;;;21.25;16.45;;;;;;;17.74;68.04;100128.66;2837205;83;21136;-72
2021/04/20 10:52:13;;;;;;;15.75;13.53;;;;;;;17.82;66.94;100116.50;2837147;82;21153;-71
2021/04/20 10:56:17;;;;;;;20.70;14.93;;;;;;;17.95;67.11;100113.73;2837020;84;21172;-72
2021/04/20 11:00:22;;;;;;;17.17;14.20;;;;;;;17.99;65.44;100114.55;2837264;84;21168;-71
2021/04/20 11:04:29;;;;;;;17.65;14.65;;;;;;;18.19;66.68;100105.18;2837084;83;21164;-71
2021/04/20 11:08:39;;;;;;;15.78;14.25;;;;;;;18.33;66.12;100103.05;2837211;84;21141;-72
2021/04/20 11:12:50;;;;;;;16.60;14.18;;;;;;;18.44;67.79;100095.05;2837241;84;21120;-72
2021/04/20 11:16:53;;;;;;;14.83;13.28;;;;;;;18.61;67.80;100088.16;2837494;84;21160;-71
2021/04/20 11:21:01;;;;;;;16.70;14.93;;;;;;;18.69;64.17;100088.06;2837166;84;21530;-72
2021/04/20 11:25:12;;;;;;;17.77;13.90;;;;;;;18.75;64.87;100079.23;2837108;84;21161;-72
2021/04/20 11:29:20;;;;;;;16.05;14.05;;;;;;;18.86;62.69;100076.59;2793445;84;21133;-72
2021/04/20 11:33:44;;;;;;;16.42;12.68;;;;;;;18.96;64.32;100071.77;2837187;84;21101;-70
2021/04/20 11:37:51;;;;;;;17.40;12.85;;;;;;;19.14;62.02;100070.59;2837624;82;21165;-71
2021/04/20 11:42:06;;;;;;;16.37;13.00;;;;;;;19.25;61.47;100066.05;2837601;84;21495;-71
2021/04/20 11:46:16;;;;;;;13.83;11.43;;;;;;;19.45;64.05;100054.66;2837794;81;21156;-71
2021/04/20 11:50:21;;;;;;;15.53;9.80;;;;;;;19.56;61.12;100054.70;2842766;83;21602;-71
2021/04/20 11:54:36;;;;;;;13.00;10.40;;;;;;;19.58;59.22;100051.80;2843156;83;21163;-71
2021/04/20 11:58:44;;;;;;;10.55;9.53;;;;;;;19.79;57.95;100046.95;2843015;83;21144;-72
2021/04/20 12:02:50;;;;;;;11.55;10.05;;;;;;;19.88;58.41;100047.13;2843442;83;21160;-71
2021/04/20 12:06:56;;;;;;;12.10;9.33;;;;;;;19.83;57.11;100042.83;2843294;83;21172;-73
2021/04/20 12:11:01;;;;;;;10.13;7.47;;;;;;;19.60;55.47;100041.66;2843208;82;21148;-71
2021/04/20 12:15:08;;;;;;;9.73;7.53;;;;;;;19.33;56.11;100031.41;2842873;82;21669;-72
2021/04/20 12:19:15;;;;;;;8.43;6.53;;;;;;;19.14;56.14;100028.80;2843132;82;21164;-72
2021/04/20 12:23:21;;;;;;;7.50;6.60;;;;;;;19.06;54.41;100024.84;2843272;82;21646;-73
2021/04/20 12:27:27;;;;;;;10.32;7.60;;;;;;;18.92;54.29;100027.86;2843640;82;21189;-73
2021/04/20 12:31:33;;;;;;;8.83;7.97;;;;;;;18.78;55.69;100022.31;2843226;83;21172;-72
2021/04/20 12:35:39;;;;;;;10.58;9.38;;;;;;;18.72;56.85;100022.22;2842847;83;21136;-71
2021/04/20 12:40:05;;;;;;;10.03;8.43;;;;;;;18.64;54.84;100017.23;2842891;83;21112;-72
2021/04/20 12:44:12;;;;;;;9.50;8.48;;;;;;;18.61;57.46;100013.56;2842718;83;21160;-72
2021/04/20 12:48:18;;;;;;;9.80;8.80;;;;;;;18.65;57.32;100014.86;2794203;83;21129;-72
2021/04/20 12:52:25;;;;;;;8.60;7.70;;;;;;;18.69;57.07;100006.75;2819298;83;21650;-74
2021/04/20 12:56:36;;;;;;;9.33;7.72;;;;;;;18.76;55.62;100000.08;2853007;83;21161;-74
2021/04/20 13:00:40;;;;;;;8.00;7.22;;;;;;;18.83;53.47;100001.02;2866983;83;21161;-75
2021/04/20 13:04:43;;;;;;;9.90;8.93;;;;;;;18.94;54.11;99997.02;2866561;83;21117;-75
2021/04/20 13:08:53;;;;;;;9.80;8.75;;;;;;;19.34;54.78;99998.55;2866905;83;21169;-71
2021/04/20 13:13:05;;;;;;;9.30;7.65;;;;;;;19.80;54.01;99989.25;2867231;83;21135;-69
2021/04/20 13:17:08;;;;;;;7.75;6.92;;;;;;;20.20;53.67;99986.91;2867346;83;21173;-73
2021/04/20 13:21:19;;;;;;;10.10;6.85;;;;;;;20.58;50.63;99979.45;2868001;83;21159;-68
2021/04/20 13:25:23;;;;;;;8.48;6.42;;;;;;;20.74;50.68;99976.92;2867705;83;21202;-68
2021/04/20 13:29:30;;;;;;;8.23;5.97;;;;;;;20.86;49.53;99960.49;2867620;83;21114;-68
2021/04/20 13:33:35;;;;;;;7.45;6.65;;;;;;;20.91;49.08;99958.02;2867750;82;21110;-68
2021/04/20 13:37:40;;;;;;;7.92;6.12;;;;;;;20.90;49.88;99964.45;2868076;83;21177;-69
2021/04/20 13:41:55;;;;;;;7.30;6.60;;;;;;;20.86;48.44;99955.09;2868445;83;21133;-69
2021/04/20 13:46:04;;;;;;;5.40;4.85;;;;;;;20.98;49.82;99948.05;2867994;83;21384;-71
2021/04/20 13:50:09;;;;;;;6.55;5.75;;;;;;;21.06;47.91;99948.92;2869263;81;21567;-69
2021/04/20 13:54:14;;;;;;;7.00;5.92;;;;;;;20.96;48.97;99955.53;2904642;81;21221;-68
2021/04/20 13:58:35;;;;;;;7.05;5.97;;;;;;;20.87;47.29;99954.05;2820916;83;21096;-68
2021/04/20 14:02:48;;;;;;;7.08;5.15;;;;;;;20.91;46.58;99945.84;2769251;86;21160;-68
2021/04/20 14:06:55;;;;;;;8.53;4.70;;;;;;;20.93;47.48;99946.98;2806832;84;21153;-68
2021/04/20 14:11:00;;;;;;;5.45;4.80;;;;;;;21.07;48.92;99947.34;2820985;84;21139;-68
2021/04/20 14:15:10;;;;;;;5.90;5.30;;;;;;;21.29;47.94;99943.67;2769454;86;21164;-68
2021/04/20 14:19:17;;;;;;;8.05;6.25;;;;;;;21.42;46.25;99934.23;2807282;84;21161;-69
2021/04/20 14:23:21;;;;;;;5.72;5.22;;;;;;;21.57;46.36;99938.59;2825073;81;21498;-68
2021/04/20 14:27:28;;;;;;;6.37;4.30;;;;;;;21.67;43.67;99937.70;2806121;82;21155;-69
2021/04/20 14:31:35;;;;;;;6.85;4.40;;;;;;;21.71;44.01;99943.02;2817439;83;21157;-70
2021/04/20 14:35:42;;;;;;;5.70;4.30;;;;;;;21.74;43.23;99934.47;2811603;84;21135;-69
2021/04/20 14:39:50;;;;;;;4.78;4.03;;;;;;;21.70;42.54;99937.29;2810621;84;21150;-68
2021/04/20 14:43:58;;;;;;;5.05;3.80;;;;;;;21.55;42.05;99934.22;2811024;84;21157;-69
2021/04/20 14:48:13;;;;;;;4.85;4.00;;;;;;;21.63;40.41;99936.44;2809378;84;21181;-69
2021/04/20 14:52:21;;;;;;;3.75;3.30;;;;;;;21.66;39.88;99940.10;2806115;84;21169;-69
2021/04/20 14:56:28;;;;;;;5.05;3.27;;;;;;;21.72;42.96;99936.55;2806259;84;21165;-68
2021/04/20 15:00:34;;;;;;;4.12;3.25;;;;;;;21.69;40.27;99938.33;2806477;85;21150;-69
2021/04/20 15:04:37;;;;;;;5.17;4.62;;;;;;;21.51;39.30;99939.73;2806145;84;21149;-68
2021/04/20 15:09:05;;;;;;;7.58;5.92;;;;;;;21.40;41.65;99952.01;2806165;84;21145;-66
2021/04/20 15:13:51;;;;;;;10.95;6.90;;;;;;;20.87;47.33;99958.61;2806196;84;21157;-64
2021/04/20 15:18:02;;;;;;;6.83;6.08;;;;;;;19.96;52.19;99982.27;2806736;83;21177;-69
2021/04/20 15:22:24;;;;;;;6.85;5.33;;;;;;;19.21;53.09;99980.36;3066950;77;22747;-68
2021/04/20 15:26:45;;;;;;;7.78;5.03;;;;;;;18.54;53.64;99987.05;3020325;78;21160;-66
2021/04/20 15:31:01;;;;;;;8.53;6.28;;;;;;;18.05;54.92;99998.63;3020233;78;22113;-67
2021/04/20 15:35:07;;;;;;;7.47;5.92;;;;;;;17.72;56.75;100001.58;2960331;80;21127;-67
2021/04/20 15:39:14;;;;;;;6.17;5.35;;;;;;;17.45;58.09;99999.73;2959988;80;21106;-67
2021/04/20 15:43:24;;;;;;;7.33;5.00;;;;;;;17.25;56.50;100000.19;2959785;80;21168;-68
2021/04/20 15:47:30;;;;;;;10.82;7.05;;;;;;;17.03;55.92;99995.61;2915135;80;21149;-66
2021/04/20 15:51:38;;;;;;;6.80;6.10;;;;;;;16.83;57.05;99998.68;2934390;81;21141;-66
2021/04/20 15:55:42;;;;;;;6.28;5.78;;;;;;;16.56;58.55;100004.83;2934449;80;21620;-67
2021/04/20 15:59:48;;;;;;;11.20;6.62;;;;;;;16.16;60.04;99989.95;2934224;80;21126;-68
2021/04/20 16:03:54;;;;;;;9.10;7.15;;;;;;;15.85;61.30;100008.89;2934632;81;21137;-69
2021/04/20 16:08:03;;;;;;;;;;;;;;;15.68;61.78;100027.31;2937226;80;21189;-68
2021/04/20 16:12:10;;;;;;;8.38;7.33;;;;;;;15.49;63.83;100046.70;2911061;81;20690;-70
2021/04/20 16:16:24;;;;;;;9.95;7.28;;;;;;;15.20;65.80;100056.02;2908479;81;21153;-66
2021/04/20 16:20:32;;;;;;;10.98;6.95;;;;;;;14.94;65.61;100058.26;2908046;81;21669;-66
2021/04/20 16:24:39;;;;;;;9.30;7.60;;;;;;;14.73;68.67;100054.63;2908432;81;21195;-67
2021/04/20 16:28:44;;;;;;;;;;;;;;;14.57;70.40;100049.99;2899888;81;21173;-65
2021/04/20 16:33:14;;;;;;;7.12;5.37;;;;;;;14.39;72.68;100055.38;2766990;85;20144;-65
2021/04/20 16:38:03;;;;;;;9.78;8.38;;;;;;;14.11;74.84;100064.88;2783558;84;21563;-69
2021/04/20 16:42:26;;;;;;;7.35;6.05;;;;;;;13.71;73.39;100050.96;2787737;84;21094;-70
2021/04/20 16:46:37;;;;;;;10.85;7.42;;;;;;;13.43;75.69;100045.17;2809304;84;21131;-68
2021/04/20 16:50:55;;;;;;;7.22;6.60;;;;;;;13.14;77.10;100041.30;2803964;84;21121;-67
2021/04/20 16:55:01;;;;;;;9.85;6.42;;;;;;;12.89;79.69;100026.31;2772110;84;21166;-67
2021/04/20 16:59:43;;;;;;;5.25;4.75;;;;;;;12.81;79.78;100021.72;2818645;84;21129;-66
2021/04/20 17:04:06;;;;;;;4.25;3.25;;;;;;;12.77;79.95;100013.66;2818891;83;21130;-66
2021/04/20 17:08:20;;;;;;;5.60;5.08;;;;;;;12.76;79.71;100010.64;2804049;84;21524;-66
2021/04/20 17:12:37;;;;;;;4.37;3.87;;;;;;;12.80;80.40;100012.53;2757302;85;21134;-68
2021/04/20 17:17:18;;;;;;;5.00;4.35;;;;;;;12.79;80.72;100016.20;2812194;84;21201;-64
2021/04/20 17:21:50;;;;;;;4.70;3.12;;;;;;;12.75;80.87;100010.78;2822020;84;21173;-64
2021/04/20 17:26:27;;;;;;;3.40;3.10;;;;;;;12.83;82.65;100003.72;2830107;84;21145;-63
2021/04/20 17:30:53;;;;;;;3.77;3.37;;;;;;;12.92;81.86;100001.99;2824034;83;21098;-64
2021/04/20 17:35:03;;;;;;;3.98;3.58;;;;;;;12.99;81.49;100003.09;2830840;84;21153;-66
2021/04/20 17:39:14;;;;;;;3.08;2.87;;;;;;;13.03;80.79;100006.30;2831060;84;21149;-62
2021/04/20 17:43:48;;;;;;;4.65;4.03;;;;;;;12.97;79.70;100002.41;2788425;84;21132;-65
2021/04/20 17:48:19;;;;;;;6.42;5.78;;;;;;;12.98;81.49;100007.23;2755096;86;21570;-64
2021/04/20 17:52:37;;;;;;;11.78;10.68;;;;;;;13.08;82.54;100001.37;2783679;85;21210;-64
2021/04/20 17:56:46;;;;;;;7.00;6.35;;;;;;;13.10;81.84;100011.41;2783188;85;21136;-64
2021/04/20 18:01:28;;;;;;;12.03;10.48;;;;;;;13.11;82.26;100010.89;2781647;85;21121;-61
2021/04/20 18:05:57;;;;;;;10.13;8.08;;;;;;;13.11;82.66;100013.56;2778668;85;21140;-60
2021/04/20 18:10:34;;;;;;;13.90;10.45;;;;;;;13.06;82.24;100011.33;2727030;85;21145;-61
2021/04/20 18:15:14;;;;;;;;;;;;;;;12.93;82.62;100021.53;2770926;85;21110;-61
2021/04/20 18:20:13;;;;;;;10.75;6.83;;;;;;;12.92;83.48;100015.85;2782281;85;20492;-61
2021/04/20 18:24:37;;;;;;;12.13;9.38;;;;;;;12.85;83.98;100016.93;2775597;85;21556;-62
2021/04/20 18:29:03;;;;;;;18.90;11.95;;;;;;;12.83;82.80;100013.57;2781130;85;21194;-61
2021/04/20 18:33:43;;;;;;;14.20;10.03;;;;;;;12.84;84.08;100015.25;2771567;85;21583;-60
2021/04/20 18:38:22;;;;;;;16.23;12.28;;;;;;;12.78;84.58;100013.18;2792105;85;21112;-60
2021/04/20 18:42:43;;;;;;;15.80;10.05;;;;;;;12.67;84.50;100020.37;2781141;84;21196;-61
2021/04/20 18:47:21;;;;;;;12.85;11.22;;;;;;;12.60;84.12;100028.62;2793776;85;21147;-62
2021/04/20 18:51:55;;;;;;;16.83;14.03;;;;;;;12.56;83.72;100021.87;3024406;77;28433;-60
2021/04/20 18:56:32;;;;;;;15.28;13.08;;;;;;;12.52;84.05;100030.67;3020902;78;21089;-61
2021/04/20 19:00:38;;;;;;;17.62;11.38;;;;;;;12.60;84.65;100031.29;3008937;77;21168;-61
2021/04/20 19:05:15;;;;;;;15.03;11.20;;;;;;;12.57;84.15;100027.55;2999261;77;21128;-61
2021/04/20 19:09:20;;;;;;;;;;;;;;;12.53;84.01;100023.02;2989261;77;21176;-61
2021/04/20 19:14:09;;;;;;;18.73;15.60;;;;;;;12.53;84.22;100025.69;2967767;78;20173;-61
2021/04/20 19:18:57;;;;;;;14.65;11.80;;;;;;;12.49;84.27;100025.64;2969375;77;21129;-61
2021/04/20 19:23:29;;;;;;;12.45;10.58;;;;;;;12.55;85.00;100021.52;3008289;78;21061;-62
2021/04/20 19:28:37;;;;;;;19.85;13.68;;;;;;;12.63;84.82;100028.33;2978050;77;23448;-62